< < Back
Terminal Aerodrome Forecast


Current Version              Previous Versions:   1  2  3  4  5  6  7  8  9  

Terminal Aerodrome Forecast

292
FTUS42 KCHS 012300
TAFSAV
TAF
KSAV 012335Z 0200/0224 VRB03KT P6SM FEW050 BKN150
     FM021700 16008KT P6SM BKN040=

Latest METAR

398
SAUS80 KWBC 020200 RRA
MTRSAV
METAR KSAV 020153Z 21004KT 10SM FEW045 SCT100 BKN220 28/24 A3010 RMK AO2
SLP192 T02830239 $


USA.gov is the U.S. government's official web portal to all federal, state and local government web resources and services.